Terminal Aerodrome Forecast
Issued by NWS Billings, MT

Home | Current Version | Previous Version | Text Only | Print | Product List | Glossary On
Versions: 1 2 3 4 5 6 7 8 9 10 11 12 13 14 15
000
FTUS45 KBYZ 242320
TAFSHR
TAF
KSHR 242320Z 2500/2524 VRB04KT P6SM BKN025
     FM250900 VRB04KT 6SM BR SCT003 BKN030
     FM251400 VRB04KT P6SM VCSH SCT025 OVC040=

USA.gov is the U.S. government's official web portal to all federal, state and local government web resources and services.